Hlavní strana
METAR-TAF:

METAR-TAF

Letiště :

Puerto Cabezas, Nikaragua

zeměpisná šířka: 14-03N, zeměpisná délka: 083-22W, výška: 20 m

Aktuální stav počasí

Zpráva byla vytvořena před 42 minutami, v 16:00 UTC
Severní vítr 8 kt
Teplota 30°C
Vlhkost vzduchu 79%
Tlak 1013 hPa
Viditelnost: 6000 m
Oblačno až skoro zataženo ve výšce 1600 ft, Vertikální cumulus.
v blízkosti, déšť

METAR: MNPC 181600Z 36008KT 6000 VCRA BKN016TCU 30/26 Q1013 TCURA/N/NE/E/SE/W

Čas: 10:42 (16:42 UTC)

Předpověď počasí

Předpověď platná od 17 v 21 UTC do 18 v 07 UTC
Severní vítr 10 kt
Viditelnost: 6000 m
Oblačno až skoro zataženo ve výšce 1600 ft, Vertikální cumulus.
Dočasný
od 18 v 03 UTC do 18 v 06 UTC
Viditelnost: 5000 m
Skoro jasno ve výšce 1400 ft, Cumulonimbus.
Oblačno až skoro zataženo ve výšce 1600 ft
bouřka, déšť
Změna
od 18 v 07 UTC do 18 v 13 UTC
Viditelnost: 7000 m
Polojasno ve výšce 1600 ft

TAF: MNPC 172131 1800/1824 36010KT 6000 VCRA/DZ BKN016TCU TEMPO 1803/1806 5000 TSRA FEW014CB BKN016 BECMG 1807/1813 7000 VCRA/HZ SCT016

Stav a předpovědi počasí z více než 4 000 letišť (zprávy METAR a TAF).

Červené a žluté tečky na mapě představují dostupné meteorologické stanice.

Když kurzor umístíte na tečku, zobrazí se název stanice.

Pak kliknutím zobrazíte stav a předpověď počasí.

Chcete-li změnit mapu, kliknutím na zelené tlačítko se znaménkem +mapu přiblížíte, kliknutím na zelené tlačítko se znaménkem – mapu oddálíte a kliknutím na zelené šipky přejdete na sousední mapy.


METAR-TAF: